首页
METAR-TAF:

METAR-TAF

机场 :

底特律, 密歇根州, 美国

纬度: 42-24-33N, 经度: 083-00-36W, 海拔: 191米

当前天气观测

该预报发布于25分钟前的16:53 UTC
风速7节,风向西北
温度 22°C
湿度 69%
气压 1014 hPa
能見度: 16.1公里
少量云层高于2800英尺
多云层高于3500英尺
阴天层高于4900英尺

METAR: KDET 041653Z 31007KT 10SM FEW028 BKN035 OVC049 22/16 A2993 RMK AO2 SLP133 T02170156

时间: 13:18 (17:18 UTC)

预报

该预报发布于5小时和58分钟前的11:20 UTC
预报有效从04日的 12点(UTC)到 05日的 12点(UTC)
风速10节,风向北转西北
能見度: 10公里
散云层高于1800英尺
阴天层高于2800英尺
从 04日的 1600点(UTC)
风速12节,风向西北
能見度: 10公里
多云层高于3500英尺
从 04日的 2100点(UTC)
风速10节,风向北转西北
能見度: 10公里
多云层高于5000英尺
从 05日的 0200点(UTC)
风速4节,风向西转西北
能見度: 10公里
散云层高于4000英尺

TAF: KDET 041120Z 0412/0512 34010KT P6SM SCT018 OVC028 FM041600 32012KT P6SM BKN035 FM042100 33010KT P6SM BKN050 FM050200 30004KT P6SM SCT040

超过4000个机场的气象观测和天气预报(METAR&TAF报告)。

可查询的气象台以黄色和红色小点在地图上表示。

将鼠标移到小点上方,可查看气象台名称。

然后点击查看天气观测和预报。

如需切换地图:点击带黑十字的绿色按钮放大地图;点击带横线的绿色按钮缩小地图;或者点击绿色箭头查看邻近地区的地图。


METAR-TAF: